シドニー の空港の天気 - METARとTAF

シドニー国際空港 ( YSSY / SYD ) - オーストラリア ニューサウスウェールズ州、Mascot
飛行場実況気象(Metar)
観測時間08/23 02:30 AEST (08/22 16:30 UTC)
風向・風速西 6m/s
視程10km以上
天気現象
少しの雲 雲底高度 1370m
気温9℃
湿度53%
気圧1023hPa
METARYSSY 221630Z 26011KT 9999 FEW045 09/00 Q1023 NOSIG
過去の天気等 Google飛行場航空写真 Wunderground天気予報

過去48時間のMETAR

飛行場予報(TAF)
発表時間: 8/22 21:03 AEST (8/22 11:03 UTC)
予報対象時間: 22日22時 AEST ~ 24日4時 AEST
風向・風速南南西 9m/s 瞬間風速 14m/s
視程10km以上
なし
23日0時 AEST から
風向・風速西南西 6m/s
視程10km以上
なし
23日4時 AEST から
風向・風速西北西 4m/s
視程10km以上
なし
23日15時 AEST から
風向・風速北北東 5m/s
視程10km以上
なし
23日22時 AEST から
風向・風速西北西 4m/s
視程10km以上
なし
TAF YSSY 221103Z 2212/2318 21018G28KT CAVOK
FM221400 25012KT CAVOK
FM221800 29008KT CAVOK
FM230500 02010KT CAVOK
FM231200 29008KT CAVOK